Cochran, Georgia
Current Conditions -  °F | °C
As of 10:55 AM on Friday 19 Dec 2014 (Local Time) from KEZM Reporting Station
Clear Clear  
Wind Chill: 50°   Ceiling: Unl
Heat Index: 50°   Visibility: 10mi
Dew Point: 41°   Wind: 3mph
Humidity: 72%   Direction: 20°NNE
Pressure: 30.2"   Gusts: NA
Location:  32.39°N, 83.35°W
Report Text: KEZM 191555Z AUTO 02003KT 10SM CLR 10/05 A3020 RMK AO2 T01000052
Loading
Personal Weather Stations






























Interactive Weather Map New forecast layout! Learn more

10-Day Weather Forecast

Advertisements
Track Severe Weather on mobile